North Providence, Rhode Island
Current Conditions -  °F | °C
As of 10:55 PM on Saturday 20 Dec 2014 (Local Time) from KSFZ Reporting Station
Overcast Overcast  
Wind Chill: 23°   Ceiling: 1800
Heat Index: 30°   Visibility: 2mi
Dew Point: 23°   Wind: 8mph
Humidity: 75%   Direction: 10°N
Pressure: 30.26"   Gusts: NA
Location:  41.86°N, 71.48°W
Report Text: KSFZ 210355Z 01007KT 2SM OVC018 M01/M05 A3026 RMK AO1
Loading
Personal Weather Stations






























Interactive Weather Map New forecast layout! Learn more

10-Day Weather Forecast

Advertisements
Track Severe Weather on mobile